Search METAR Data

METAR Data for GMFF:

GMFF 241200Z 06004KT 340V140 CAVOK 24/01 Q1015 NOSIG